Time;durP1;ratioP1;P1;durP2;ratioP2;P2;SDS_P1;SDS_P2;PMS_P1;PMS_P2;Temp;Humidity;BMP_temperature;BMP_pressure;BME280_temperature;BME280_humidity;BME280_pressure;Samples;Min_cycle;Max_cycle;Signal;HPM_P1;HPM_P2
2023/03/11 00:02:43;;;;;;;;;;;;;;;;;;4964464;28;20321;-64
2023/03/11 00:05:11;;;;;;;;;;;;;;;;;;4974620;28;19917;-63
2023/03/11 00:07:38;;;;;;;;;;;;;;;;;;4981567;28;20467;-64
2023/03/11 00:10:04;;;;;;;;;;;;;;;;;;4964210;28;19921;-65
2023/03/11 00:12:32;;;;;;;;;;;;;;;;;;4978453;28;20391;-64
2023/03/11 00:14:57;;;;;;;;;;;;;;;;;;4978812;28;20613;-66
2023/03/11 00:17:23;;;;;;;;;;;;;;;;;;4978275;28;19932;-63
2023/03/11 00:23:07;;;;;;;;;;;;;;;;;;4980470;28;21308;-66
2023/03/11 00:25:35;;;;;;;;;;;;;;;;;;4988208;28;20029;-65
2023/03/11 00:28:00;;;;;;;;;;;;;;;;;;4985917;28;20020;-65
2023/03/11 00:30:26;;;;;;;;;;;;;;;;;;4981693;28;19921;-65
2023/03/11 00:32:51;;;;;;;;;;;;;;;;;;4979194;28;19988;-65
2023/03/11 00:35:17;;;;;;;;;;;;;;;;;;4976960;28;19961;-65
2023/03/11 00:37:44;;;;;;;;;;;;;;;;;;4967443;28;20004;-67
2023/03/11 00:40:10;;;;;;;;;;;;;;;;;;4982582;28;19926;-66
2023/03/11 00:42:35;;;;;;;;;;;;;;;;;;4963050;28;19960;-66
2023/03/11 00:45:00;;;;;;;;;;;;;;;;;;4964950;28;19917;-67
2023/03/11 00:47:26;;;;;;;;;;;;;;;;;;4962898;28;20084;-67
2023/03/11 00:49:51;;;;;;;;;;;;;;;;;;4966108;28;19960;-67
2023/03/11 00:52:21;;;;;;;;;;;;;;;;;;4977807;28;19921;-66
2023/03/11 00:58:03;;;;;;;;;;;;;;;;;;4979395;28;20292;-66
2023/03/11 01:00:31;;;;;;;;;;;;;;;;;;4980740;28;19926;-66
2023/03/11 01:02:59;;;;;;;;;;;;;;;;;;4976103;28;20028;-66
2023/03/11 01:05:30;;;;;;;;;;;;;;;;;;4977464;28;20223;-66
2023/03/11 01:08:00;;;;;;;;;;;;;;;;;;4966155;28;19931;-67
2023/03/11 01:10:29;;;;;;;;;;;;;;;;;;4984333;28;19933;-67
2023/03/11 01:12:54;;;;;;;;;;;;;;;;;;4969599;28;21500;-67
2023/03/11 01:15:22;;;;;;;;;;;;;;;;;;4976135;28;19917;-68
2023/03/11 01:17:47;;;;;;;;;;;;;;;;;;4971631;28;20008;-67
2023/03/11 01:20:16;;;;;;;;;;;;;;;;;;4985909;28;19921;-68
2023/03/11 01:22:41;;;;;;;;;;;;;;;;;;4987732;28;19928;-67
2023/03/11 01:25:08;;;;;;;;;;;;;;;;;;4995142;28;19941;-66
2023/03/11 01:27:36;;;;;;;;;;;;;;;;;;4984040;28;19918;-66
2023/03/11 01:30:01;;;;;;;;;;;;;;;;;;4985866;28;19921;-66
2023/03/11 01:32:30;;;;;;;;;;;;;;;;;;4983278;28;20025;-68
2023/03/11 01:34:55;;;;;;;;;;;;;;;;;;4984787;28;19929;-66
2023/03/11 01:37:20;;;;;;;;;;;;;;;;;;4955999;28;20612;-67
2023/03/11 01:39:46;;;;;;;;;;;;;;;;;;4978932;28;19952;-67
2023/03/11 01:42:11;;;;;;;;;;;;;;;;;;4977627;28;20066;-67
2023/03/11 01:44:37;;;;;;;;;;;;;;;;;;4967641;28;19925;-66
2023/03/11 01:47:02;;;;;;;;;;;;;;;;;;4979464;28;20854;-66
2023/03/11 01:49:27;;;;;;;;;;;;;;;;;;4981522;28;20516;-66
2023/03/11 01:51:56;;;;;;;;;;;;;;;;;;4961757;28;19972;-67
2023/03/11 01:54:21;;;;;;;;;;;;;;;;;;4985099;28;20235;-66
2023/03/11 01:56:46;;;;;;;;;;;;;;;;;;4979331;28;19980;-67
2023/03/11 01:59:12;;;;;;;;;;;;;;;;;;4982748;28;20404;-66
2023/03/11 02:01:37;;;;;;;;;;;;;;;;;;4974277;28;20312;-66
2023/03/11 02:04:06;;;;;;;;;;;;;;;;;;4982139;28;20012;-66
2023/03/11 02:06:32;;;;;;;;;;;;;;;;;;4983860;28;20485;-66
2023/03/11 02:09:02;;;;;;;;;;;;;;;;;;4984438;28;20595;-67
2023/03/11 02:11:27;;;;;;;;;;;;;;;;;;4986239;28;19933;-66
2023/03/11 02:13:55;;;;;;;;;;;;;;;;;;4984080;28;19922;-67
2023/03/11 02:16:21;;;;;;;;;;;;;;;;;;4982906;28;19925;-66
2023/03/11 02:18:46;;;;;;;;;;;;;;;;;;4980243;28;19928;-67
2023/03/11 02:21:14;;;;;;;;;;;;;;;;;;4984258;28;19940;-67
2023/03/11 02:23:39;;;;;;;;;;;;;;;;;;4979027;28;20039;-66
2023/03/11 02:26:07;;;;;;;;;;;;;;;;;;4989231;28;19922;-69
2023/03/11 02:31:49;;;;;;;;;;;;;;;;;;4981192;28;20551;-66
2023/03/11 02:34:14;;;;;;;;;;;;;;;;;;4962493;28;19925;-66
2023/03/11 02:36:43;;;;;;;;;;;;;;;;;;4981712;28;20072;-67
2023/03/11 02:39:10;;;;;;;;;;;;;;;;;;4967844;28;19929;-66
2023/03/11 02:41:36;;;;;;;;;;;;;;;;;;4968373;28;20739;-66
2023/03/11 02:44:01;;;;;;;;;;;;;;;;;;4972762;28;19921;-67
2023/03/11 02:46:27;;;;;;;;;;;;;;;;;;4978988;28;19922;-66
2023/03/11 02:48:52;;;;;;;;;;;;;;;;;;4984531;28;20745;-66
2023/03/11 02:51:17;;;;;;;;;;;;;;;;;;4965814;28;19925;-66
2023/03/11 02:53:42;;;;;;;;;;;;;;;;;;4981074;28;20377;-67
2023/03/11 02:56:13;;;;;;;;;;;;;;;;;;4976966;28;19968;-66
2023/03/11 02:58:41;;;;;;;;;;;;;;;;;;4982378;28;19921;-66
2023/03/11 03:01:06;;;;;;;;;;;;;;;;;;4959101;28;20471;-67
2023/03/11 03:03:31;;;;;;;;;;;;;;;;;;4978911;28;20641;-66
2023/03/11 03:05:56;;;;;;;;;;;;;;;;;;4982002;28;20088;-67
2023/03/11 03:08:22;;;;;;;;;;;;;;;;;;4974013;28;20479;-66
2023/03/11 03:10:47;;;;;;;;;;;;;;;;;;4974681;28;19928;-66
2023/03/11 03:13:12;;;;;;;;;;;;;;;;;;4973698;28;20112;-66
2023/03/11 03:15:38;;;;;;;;;;;;;;;;;;4966918;28;20641;-66
2023/03/11 03:18:08;;;;;;;;;;;;;;;;;;4979835;28;19958;-67
2023/03/11 03:20:36;;;;;;;;;;;;;;;;;;4982101;28;20703;-66
2023/03/11 03:23:02;;;;;;;;;;;;;;;;;;4976138;28;20075;-65
2023/03/11 03:25:30;;;;;;;;;;;;;;;;;;4963750;28;19921;-66
2023/03/11 03:27:55;;;;;;;;;;;;;;;;;;4980833;28;19960;-65
2023/03/11 03:30:23;;;;;;;;;;;;;;;;;;4978802;28;20308;-66
2023/03/11 03:32:48;;;;;;;;;;;;;;;;;;4978652;28;20328;-65
2023/03/11 03:35:14;;;;;;;;;;;;;;;;;;4978505;28;20120;-65
2023/03/11 03:37:39;;;;;;;;;;;;;;;;;;4980190;28;19984;-64
2023/03/11 03:40:06;;;;;;;;;;;;;;;;;;4980638;28;19924;-64
2023/03/11 03:42:35;;;;;;;;;;;;;;;;;;4982122;28;20572;-65
2023/03/11 03:45:00;;;;;;;;;;;;;;;;;;4963065;28;19921;-64
2023/03/11 03:47:25;;;;;;;;;;;;;;;;;;4964221;28;19983;-64
2023/03/11 03:49:50;;;;;;;;;;;;;;;;;;4978798;28;19948;-64
2023/03/11 03:52:16;;;;;;;;;;;;;;;;;;4978603;28;19961;-64
2023/03/11 03:54:44;;;;;;;;;;;;;;;;;;4980101;28;19922;-64
2023/03/11 03:57:09;;;;;;;;;;;;;;;;;;4984682;28;19928;-64
2023/03/11 03:59:34;;;;;;;;;;;;;;;;;;4980770;28;19932;-64
2023/03/11 04:02:03;;;;;;;;;;;;;;;;;;4979093;28;19918;-65
2023/03/11 04:04:28;;;;;;;;;;;;;;;;;;4966532;28;19921;-64
2023/03/11 04:06:53;;;;;;;;;;;;;;;;;;4980509;28;19929;-64
2023/03/11 04:09:21;;;;;;;;;;;;;;;;;;4981238;28;20009;-64
2023/03/11 04:11:49;;;;;;;;;;;;;;;;;;4981658;28;19921;-64
2023/03/11 04:14:17;;;;;;;;;;;;;;;;;;4964021;28;19935;-64
2023/03/11 04:16:43;;;;;;;;;;;;;;;;;;4980330;28;19929;-63
2023/03/11 04:19:08;;;;;;;;;;;;;;;;;;4977998;28;19980;-64
2023/03/11 04:21:36;;;;;;;;;;;;;;;;;;4973178;28;19918;-64
2023/03/11 04:24:01;;;;;;;;;;;;;;;;;;4983746;28;19927;-64
2023/03/11 04:26:27;;;;;;;;;;;;;;;;;;4967091;28;20423;-64
2023/03/11 04:28:52;;;;;;;;;;;;;;;;;;4978920;28;20428;-64
2023/03/11 04:31:20;;;;;;;;;;;;;;;;;;4980538;28;21964;-64
2023/03/11 04:33:46;;;;;;;;;;;;;;;;;;4965287;28;19922;-64
2023/03/11 04:36:16;;;;;;;;;;;;;;;;;;4996675;28;20261;-64
2023/03/11 04:38:45;;;;;;;;;;;;;;;;;;4979057;28;20043;-64
2023/03/11 04:41:11;;;;;;;;;;;;;;;;;;4964798;28;20034;-64
2023/03/11 04:43:36;;;;;;;;;;;;;;;;;;4966795;28;20356;-64
2023/03/11 04:46:04;;;;;;;;;;;;;;;;;;4981645;28;19973;-64
2023/03/11 04:48:29;;;;;;;;;;;;;;;;;;4987413;28;20035;-64
2023/03/11 04:50:54;;;;;;;;;;;;;;;;;;4973747;28;19922;-64
2023/03/11 04:53:20;;;;;;;;;;;;;;;;;;4981685;28;20016;-65
2023/03/11 04:55:46;;;;;;;;;;;;;;;;;;4979460;28;20542;-64
2023/03/11 04:58:12;;;;;;;;;;;;;;;;;;4966885;28;19925;-64
2023/03/11 05:03:54;;;;;;;;;;;;;;;;;;4980434;28;20584;-66
2023/03/11 05:06:20;;;;;;;;;;;;;;;;;;4982542;28;19921;-66
2023/03/11 05:08:45;;;;;;;;;;;;;;;;;;4975787;28;19921;-65
2023/03/11 05:11:11;;;;;;;;;;;;;;;;;;4967609;28;20478;-66
2023/03/11 05:13:36;;;;;;;;;;;;;;;;;;4976353;28;19921;-65
2023/03/11 05:16:01;;;;;;;;;;;;;;;;;;4981619;28;20397;-65
2023/03/11 05:18:27;;;;;;;;;;;;;;;;;;4977884;28;20230;-65
2023/03/11 05:20:52;;;;;;;;;;;;;;;;;;4963511;28;20048;-65
2023/03/11 05:23:17;;;;;;;;;;;;;;;;;;4979478;28;19928;-65
2023/03/11 05:25:43;;;;;;;;;;;;;;;;;;4976639;28;19932;-64
2023/03/11 05:28:08;;;;;;;;;;;;;;;;;;4982995;28;20008;-67
2023/03/11 05:30:34;;;;;;;;;;;;;;;;;;4981857;28;20393;-64
2023/03/11 05:32:59;;;;;;;;;;;;;;;;;;4967080;28;19925;-65
2023/03/11 05:35:25;;;;;;;;;;;;;;;;;;4985589;28;20023;-65
2023/03/11 05:37:52;;;;;;;;;;;;;;;;;;4981985;28;20392;-66
2023/03/11 05:40:18;;;;;;;;;;;;;;;;;;4982287;28;20176;-65
2023/03/11 05:42:43;;;;;;;;;;;;;;;;;;4978589;28;19985;-65
2023/03/11 05:48:27;;;;;;;;;;;;;;;;;;4972761;28;19928;-66
2023/03/11 05:50:53;;;;;;;;;;;;;;;;;;4968717;28;20668;-65
2023/03/11 05:53:18;;;;;;;;;;;;;;;;;;4977883;28;19965;-66
2023/03/11 05:55:46;;;;;;;;;;;;;;;;;;4981337;28;19932;-65
2023/03/11 05:58:11;;;;;;;;;;;;;;;;;;4965482;28;20344;-66
2023/03/11 06:00:37;;;;;;;;;;;;;;;;;;4965450;28;19918;-66
2023/03/11 06:03:03;;;;;;;;;;;;;;;;;;4982936;28;20558;-65
2023/03/11 06:05:28;;;;;;;;;;;;;;;;;;4982734;28;20381;-65
2023/03/11 06:07:54;;;;;;;;;;;;;;;;;;4979396;28;19989;-65
2023/03/11 06:10:19;;;;;;;;;;;;;;;;;;4978505;28;20812;-65
2023/03/11 06:12:44;;;;;;;;;;;;;;;;;;4981365;28;19921;-65
2023/03/11 06:15:10;;;;;;;;;;;;;;;;;;4981005;28;19925;-65
2023/03/11 06:17:35;;;;;;;;;;;;;;;;;;4979474;28;20114;-65
2023/03/11 06:20:01;;;;;;;;;;;;;;;;;;4966619;28;19921;-65
2023/03/11 06:22:26;;;;;;;;;;;;;;;;;;4981081;28;19921;-65
2023/03/11 06:24:51;;;;;;;;;;;;;;;;;;4984124;28;20668;-65
2023/03/11 06:27:17;;;;;;;;;;;;;;;;;;4980880;28;19918;-65
2023/03/11 06:29:42;;;;;;;;;;;;;;;;;;4983078;28;20483;-65
2023/03/11 06:32:07;;;;;;;;;;;;;;;;;;4980002;28;20224;-65
2023/03/11 06:34:33;;;;;;;;;;;;;;;;;;4965320;28;20541;-65
2023/03/11 06:36:59;;;;;;;;;;;;;;;;;;4979826;28;19925;-65
2023/03/11 06:39:24;;;;;;;;;;;;;;;;;;4982732;28;20012;-66
2023/03/11 06:41:49;;;;;;;;;;;;;;;;;;4980547;28;20480;-64
2023/03/11 06:44:15;;;;;;;;;;;;;;;;;;4982478;28;19918;-65
2023/03/11 06:46:40;;;;;;;;;;;;;;;;;;4978816;28;19920;-65
2023/03/11 06:49:08;;;;;;;;;;;;;;;;;;4978709;28;19945;-64
2023/03/11 06:51:34;;;;;;;;;;;;;;;;;;4981298;28;19917;-64
2023/03/11 06:54:01;;;;;;;;;;;;;;;;;;4979377;28;20314;-64
2023/03/11 06:56:27;;;;;;;;;;;;;;;;;;4979323;28;20004;-64
2023/03/11 06:58:52;;;;;;;;;;;;;;;;;;4981013;28;20623;-65
2023/03/11 07:01:17;;;;;;;;;;;;;;;;;;4967663;28;19964;-64
2023/03/11 07:03:45;;;;;;;;;;;;;;;;;;4982527;28;19957;-63
2023/03/11 07:06:10;;;;;;;;;;;;;;;;;;4980299;28;20015;-64
2023/03/11 07:08:36;;;;;;;;;;;;;;;;;;4981074;28;20164;-64
2023/03/11 07:11:01;;;;;;;;;;;;;;;;;;4977075;28;20526;-64
2023/03/11 07:13:27;;;;;;;;;;;;;;;;;;4966166;28;20492;-63
2023/03/11 07:15:52;;;;;;;;;;;;;;;;;;4978675;28;20432;-63
2023/03/11 07:18:18;;;;;;;;;;;;;;;;;;4978968;28;20610;-63
2023/03/11 07:20:44;;;;;;;;;;;;;;;;;;4979648;28;19976;-63
2023/03/11 07:23:10;;;;;;;;;;;;;;;;;;4985328;28;19956;-63
2023/03/11 07:25:35;;;;;;;;;;;;;;;;;;4975748;28;19921;-63
2023/03/11 07:28:01;;;;;;;;;;;;;;;;;;4978642;28;19918;-63
2023/03/11 07:30:29;;;;;;;;;;;;;;;;;;4964527;28;20181;-63
2023/03/11 07:32:55;;;;;;;;;;;;;;;;;;4977101;28;21607;-65
2023/03/11 07:35:20;;;;;;;;;;;;;;;;;;4961086;28;19929;-63
2023/03/11 07:37:49;;;;;;;;;;;;;;;;;;4963808;28;19997;-63
2023/03/11 07:40:17;;;;;;;;;;;;;;;;;;4977381;28;19922;-65
2023/03/11 07:42:42;;;;;;;;;;;;;;;;;;4981126;28;20404;-65
2023/03/11 07:45:08;;;;;;;;;;;;;;;;;;4975477;28;19984;-66
2023/03/11 07:47:36;;;;;;;;;;;;;;;;;;4981919;28;20180;-65
2023/03/11 07:50:02;;;;;;;;;;;;;;;;;;4968376;28;19922;-65
2023/03/11 07:52:27;;;;;;;;;;;;;;;;;;4996765;28;20688;-65
2023/03/11 07:54:52;;;;;;;;;;;;;;;;;;4983724;28;19952;-64
2023/03/11 07:57:18;;;;;;;;;;;;;;;;;;4960840;28;19918;-64
2023/03/11 07:59:46;;;;;;;;;;;;;;;;;;4981326;28;19991;-64
2023/03/11 08:02:16;;;;;;;;;;;;;;;;;;4981493;28;19921;-63
2023/03/11 08:04:42;;;;;;;;;;;;;;;;;;4981145;28;20010;-62
2023/03/11 08:07:07;;;;;;;;;;;;;;;;;;4967309;28;19921;-62
2023/03/11 08:09:35;;;;;;;;;;;;;;;;;;4980574;28;20459;-62
2023/03/11 08:12:00;;;;;;;;;;;;;;;;;;4981018;28;20020;-62
2023/03/11 08:14:25;;;;;;;;;;;;;;;;;;4965567;28;20577;-62
2023/03/11 08:16:53;;;;;;;;;;;;;;;;;;4963997;28;20322;-62
2023/03/11 08:19:21;;;;;;;;;;;;;;;;;;4986576;28;19917;-63
2023/03/11 08:21:52;;;;;;;;;;;;;;;;;;4980209;28;19964;-63
2023/03/11 08:24:17;;;;;;;;;;;;;;;;;;4991230;28;20097;-63
2023/03/11 08:26:51;;;;;;;;;;;;;;;;;;4965056;28;20358;-63
2023/03/11 08:29:16;;;;;;;;;;;;;;;;;;4982217;28;20185;-63
2023/03/11 08:31:42;;;;;;;;;;;;;;;;;;4977137;28;19917;-63
2023/03/11 08:34:07;;;;;;;;;;;;;;;;;;4976727;28;19918;-64
2023/03/11 08:36:35;;;;;;;;;;;;;;;;;;4974465;28;19925;-64
2023/03/11 08:39:03;;;;;;;;;;;;;;;;;;4978009;28;19918;-63
2023/03/11 08:41:28;;;;;;;;;;;;;;;;;;4974391;28;19917;-63
2023/03/11 08:43:57;;;;;;;;;;;;;;;;;;4976606;28;20381;-63
2023/03/11 08:46:24;;;;;;;;;;;;;;;;;;4977442;28;19947;-63
2023/03/11 08:48:52;;;;;;;;;;;;;;;;;;4977520;28;20084;-64
2023/03/11 08:51:18;;;;;;;;;;;;;;;;;;4979309;28;19921;-65
2023/03/11 08:53:44;;;;;;;;;;;;;;;;;;4979714;28;19960;-65
2023/03/11 08:56:09;;;;;;;;;;;;;;;;;;4980051;28;20450;-65
2023/03/11 08:58:37;;;;;;;;;;;;;;;;;;4979539;28;19922;-65
2023/03/11 09:01:02;;;;;;;;;;;;;;;;;;4974387;28;19944;-65
2023/03/11 09:03:28;;;;;;;;;;;;;;;;;;4972535;28;20173;-65
2023/03/11 09:05:56;;;;;;;;;;;;;;;;;;4978140;28;19930;-65
2023/03/11 09:08:24;;;;;;;;;;;;;;;;;;4973108;28;20026;-66
2023/03/11 09:10:49;;;;;;;;;;;;;;;;;;4978360;28;19921;-67
2023/03/11 09:13:14;;;;;;;;;;;;;;;;;;4958846;28;20280;-67
2023/03/11 09:15:40;;;;;;;;;;;;;;;;;;4975912;28;20223;-68
2023/03/11 09:18:07;;;;;;;;;;;;;;;;;;4956939;28;19968;-69
2023/03/11 09:20:33;;;;;;;;;;;;;;;;;;4977889;28;20358;-69
2023/03/11 09:23:03;;;;;;;;;;;;;;;;;;4962302;28;19918;-70
2023/03/11 09:25:29;;;;;;;;;;;;;;;;;;4975524;28;19949;-70
2023/03/11 09:27:56;;;;;;;;;;;;;;;;;;4976803;28;20336;-69
2023/03/11 09:30:22;;;;;;;;;;;;;;;;;;4976899;28;19925;-70
2023/03/11 09:32:47;;;;;;;;;;;;;;;;;;4976891;28;19935;-69
2023/03/11 09:35:13;;;;;;;;;;;;;;;;;;4979224;28;21497;-69
2023/03/11 09:37:38;;;;;;;;;;;;;;;;;;4964784;28;20321;-69
2023/03/11 09:40:03;;;;;;;;;;;;;;;;;;4963709;28;19928;-68
2023/03/11 09:42:28;;;;;;;;;;;;;;;;;;4996122;28;20092;-69
2023/03/11 09:44:56;;;;;;;;;;;;;;;;;;4977639;28;19969;-66
2023/03/11 09:47:22;;;;;;;;;;;;;;;;;;4976937;28;20430;-67
2023/03/11 09:49:47;;;;;;;;;;;;;;;;;;4974569;28;19921;-68
2023/03/11 09:52:17;;;;;;;;;;;;;;;;;;4978621;28;19921;-68
2023/03/11 09:54:43;;;;;;;;;;;;;;;;;;4977642;28;19968;-68
2023/03/11 09:57:10;;;;;;;;;;;;;;;;;;4979273;28;19931;-67
2023/03/11 09:59:42;;;;;;;;;;;;;;;;;;4964644;28;19918;-67
2023/03/11 10:02:08;;;;;;;;;;;;;;;;;;4979254;28;19925;-67
2023/03/11 10:04:36;;;;;;;;;;;;;;;;;;4980247;28;21500;-67
2023/03/11 10:07:01;;;;;;;;;;;;;;;;;;4980662;28;20372;-68
2023/03/11 10:09:27;;;;;;;;;;;;;;;;;;4979792;28;20296;-67
2023/03/11 10:11:54;;;;;;;;;;;;;;;;;;4979681;28;19921;-67
2023/03/11 10:14:22;;;;;;;;;;;;;;;;;;4974412;28;19921;-67
2023/03/11 10:16:47;;;;;;;;;;;;;;;;;;4977024;28;20592;-67
2023/03/11 10:19:15;;;;;;;;;;;;;;;;;;4962439;28;20128;-68
2023/03/11 10:21:41;;;;;;;;;;;;;;;;;;4980278;28;19960;-68
2023/03/11 10:24:09;;;;;;;;;;;;;;;;;;4976770;28;21695;-71
2023/03/11 10:26:37;;;;;;;;;;;;;;;;;;4978914;28;19968;-71
2023/03/11 10:29:02;;;;;;;;;;;;;;;;;;4978646;28;20456;-70
2023/03/11 10:31:30;;;;;;;;;;;;;;;;;;4951188;28;20103;-70
2023/03/11 10:33:58;;;;;;;;;;;;;;;;;;4977484;28;20162;-70
2023/03/11 10:36:25;;;;;;;;;;;;;;;;;;4976922;28;20301;-71
2023/03/11 10:38:53;;;;;;;;;;;;;;;;;;4979268;28;20635;-71
2023/03/11 10:41:18;;;;;;;;;;;;;;;;;;4976905;28;19921;-71
2023/03/11 10:43:46;;;;;;;;;;;;;;;;;;4992711;28;19965;-74
2023/03/11 10:46:11;;;;;;;;;;;;;;;;;;4973480;28;20329;-69
2023/03/11 10:48:37;;;;;;;;;;;;;;;;;;4952057;28;19951;-70
2023/03/11 10:51:02;;;;;;;;;;;;;;;;;;4969270;28;19972;-69
2023/03/11 10:53:27;;;;;;;;;;;;;;;;;;4961820;28;20044;-70
2023/03/11 10:55:53;;;;;;;;;;;;;;;;;;4966472;28;20008;-72
2023/03/11 10:58:18;;;;;;;;;;;;;;;;;;4978119;28;19918;-72
2023/03/11 11:00:44;;;;;;;;;;;;;;;;;;4985950;28;20021;-75
2023/03/11 11:03:09;;;;;;;;;;;;;;;;;;4961849;28;19983;-74
2023/03/11 11:05:35;;;;;;;;;;;;;;;;;;4975699;28;19925;-73
2023/03/11 11:08:03;;;;;;;;;;;;;;;;;;4977926;28;20301;-73
2023/03/11 11:10:33;;;;;;;;;;;;;;;;;;4977050;28;19976;-72
2023/03/11 11:12:59;;;;;;;;;;;;;;;;;;4978457;28;19929;-72
2023/03/11 11:15:24;;;;;;;;;;;;;;;;;;4963690;28;19922;-71
2023/03/11 11:17:54;;;;;;;;;;;;;;;;;;4979449;28;19979;-70
2023/03/11 11:20:24;;;;;;;;;;;;;;;;;;4962076;28;19972;-70
2023/03/11 11:22:50;;;;;;;;;;;;;;;;;;4981127;28;19922;-71
2023/03/11 11:25:27;;;;;;;;;;;;;;;;;;4969264;28;19921;-71
2023/03/11 11:27:53;;;;;;;;;;;;;;;;;;4983179;28;19921;-71
2023/03/11 11:30:18;;;;;;;;;;;;;;;;;;4964809;28;19921;-71
2023/03/11 11:32:46;;;;;;;;;;;;;;;;;;4978452;28;19993;-71
2023/03/11 11:35:11;;;;;;;;;;;;;;;;;;4985529;28;20097;-69
2023/03/11 11:37:37;;;;;;;;;;;;;;;;;;4976504;28;19921;-68
2023/03/11 11:40:08;;;;;;;;;;;;;;;;;;4982306;28;20088;-68
2023/03/11 11:42:34;;;;;;;;;;;;;;;;;;4965567;28;19925;-68
2023/03/11 11:45:02;;;;;;;;;;;;;;;;;;4966327;28;20971;-68
2023/03/11 11:47:27;;;;;;;;;;;;;;;;;;4978936;28;19922;-68
2023/03/11 11:49:57;;;;;;;;;;;;;;;;;;4969259;28;20390;-67
2023/03/11 11:52:25;;;;;;;;;;;;;;;;;;4963092;28;19933;-68
2023/03/11 11:54:51;;;;;;;;;;;;;;;;;;4979828;28;21795;-68
2023/03/11 11:57:16;;;;;;;;;;;;;;;;;;4964109;28;20151;-68
2023/03/11 11:59:41;;;;;;;;;;;;;;;;;;4963496;28;19957;-67
2023/03/11 12:02:10;;;;;;;;;;;;;;;;;;4975803;28;20210;-69
2023/03/11 12:04:37;;;;;;;;;;;;;;;;;;4979944;28;19918;-68
2023/03/11 12:07:03;;;;;;;;;;;;;;;;;;4976945;28;20598;-67
2023/03/11 12:09:31;;;;;;;;;;;;;;;;;;4977828;28;19921;-67
2023/03/11 12:11:56;;;;;;;;;;;;;;;;;;4983276;28;20381;-67
2023/03/11 12:14:21;;;;;;;;;;;;;;;;;;4982394;28;19922;-67
2023/03/11 12:16:47;;;;;;;;;;;;;;;;;;4976850;28;19952;-67
2023/03/11 12:19:12;;;;;;;;;;;;;;;;;;4975490;28;19917;-67
2023/03/11 12:21:37;;;;;;;;;;;;;;;;;;4970087;28;20538;-67
2023/03/11 12:24:08;;;;;;;;;;;;;;;;;;4963042;28;20302;-67
2023/03/11 12:26:33;;;;;;;;;;;;;;;;;;4966110;28;19937;-67
2023/03/11 12:28:58;;;;;;;;;;;;;;;;;;4975054;28;19928;-68
2023/03/11 12:31:24;;;;;;;;;;;;;;;;;;4973842;28;19922;-67
2023/03/11 12:33:52;;;;;;;;;;;;;;;;;;4974303;28;19932;-66
2023/03/11 12:36:22;;;;;;;;;;;;;;;;;;4974469;28;19940;-66
2023/03/11 12:38:47;;;;;;;;;;;;;;;;;;4975062;28;20529;-68
2023/03/11 12:41:13;;;;;;;;;;;;;;;;;;4978243;28;20085;-68
2023/03/11 12:43:41;;;;;;;;;;;;;;;;;;4979052;28;20800;-68
2023/03/11 12:46:07;;;;;;;;;;;;;;;;;;4975374;28;19921;-68
2023/03/11 12:48:32;;;;;;;;;;;;;;;;;;4980186;28;21647;-68
2023/03/11 12:51:00;;;;;;;;;;;;;;;;;;4975421;28;19921;-68
2023/03/11 12:53:28;;;;;;;;;;;;;;;;;;4959006;28;19940;-67
2023/03/11 12:56:00;;;;;;;;;;;;;;;;;;4979894;28;19922;-68
2023/03/11 12:58:28;;;;;;;;;;;;;;;;;;4976482;28;19921;-68
2023/03/11 13:00:53;;;;;;;;;;;;;;;;;;4979154;28;19980;-67
2023/03/11 13:03:19;;;;;;;;;;;;;;;;;;4976533;28;19956;-66
2023/03/11 13:05:47;;;;;;;;;;;;;;;;;;4969370;28;20436;-67
2023/03/11 13:08:14;;;;;;;;;;;;;;;;;;4983730;28;19932;-69
2023/03/11 13:10:43;;;;;;;;;;;;;;;;;;4983250;28;19970;-68
2023/03/11 13:13:13;;;;;;;;;;;;;;;;;;4967076;28;20153;-68
2023/03/11 13:15:41;;;;;;;;;;;;;;;;;;4982247;28;19993;-68
2023/03/11 13:18:06;;;;;;;;;;;;;;;;;;4980606;28;19948;-67
2023/03/11 13:20:42;;;;;;;;;;;;;;;;;;4983160;28;20380;-66
2023/03/11 13:23:07;;;;;;;;;;;;;;;;;;4982961;28;20389;-66
2023/03/11 13:25:35;;;;;;;;;;;;;;;;;;4981739;28;19961;-66
2023/03/11 13:28:00;;;;;;;;;;;;;;;;;;4983328;28;20012;-67
2023/03/11 13:30:28;;;;;;;;;;;;;;;;;;4980610;28;19921;-67
2023/03/11 13:32:54;;;;;;;;;;;;;;;;;;4979631;28;19941;-67
2023/03/11 13:35:21;;;;;;;;;;;;;;;;;;4955871;28;19937;-67
2023/03/11 13:37:50;;;;;;;;;;;;;;;;;;4988812;28;19921;-67
2023/03/11 13:40:15;;;;;;;;;;;;;;;;;;4982787;28;19924;-67
2023/03/11 13:42:40;;;;;;;;;;;;;;;;;;4966023;28;19970;-67
2023/03/11 13:45:05;;;;;;;;;;;;;;;;;;4957045;28;20012;-67
2023/03/11 13:47:31;;;;;;;;;;;;;;;;;;4978408;28;19971;-66
2023/03/11 13:49:56;;;;;;;;;;;;;;;;;;4981254;28;19922;-67
2023/03/11 13:52:22;;;;;;;;;;;;;;;;;;4975406;28;20305;-66
2023/03/11 13:54:47;;;;;;;;;;;;;;;;;;4965643;28;19957;-67
2023/03/11 13:57:13;;;;;;;;;;;;;;;;;;4977924;28;19963;-67
2023/03/11 13:59:38;;;;;;;;;;;;;;;;;;4980543;28;19996;-67
2023/03/11 14:02:04;;;;;;;;;;;;;;;;;;4964378;28;19925;-66
2023/03/11 14:04:32;;;;;;;;;;;;;;;;;;4984972;28;19921;-67
2023/03/11 14:06:57;;;;;;;;;;;;;;;;;;4984852;28;20355;-66
2023/03/11 14:09:22;;;;;;;;;;;;;;;;;;4986321;28;19917;-66
2023/03/11 14:11:50;;;;;;;;;;;;;;;;;;4985964;28;20367;-66
2023/03/11 14:14:15;;;;;;;;;;;;;;;;;;4987227;28;20029;-68
2023/03/11 14:16:46;;;;;;;;;;;;;;;;;;4970717;28;19929;-65
2023/03/11 14:19:11;;;;;;;;;;;;;;;;;;4982627;28;19928;-65
2023/03/11 14:21:40;;;;;;;;;;;;;;;;;;4982524;28;19929;-65
2023/03/11 14:24:05;;;;;;;;;;;;;;;;;;4998124;28;19921;-66
2023/03/11 14:26:31;;;;;;;;;;;;;;;;;;4981323;28;20359;-66
2023/03/11 14:28:57;;;;;;;;;;;;;;;;;;4978013;28;20344;-67
2023/03/11 14:31:24;;;;;;;;;;;;;;;;;;4984005;28;20036;-67
2023/03/11 14:33:49;;;;;;;;;;;;;;;;;;4963543;28;19921;-67
2023/03/11 14:36:26;;;;;;;;;;;;;;;;;;4978354;28;19929;-66
2023/03/11 14:38:52;;;;;;;;;;;;;;;;;;4982991;28;19964;-66
2023/03/11 14:41:17;;;;;;;;;;;;;;;;;;4968704;28;19999;-65
2023/03/11 14:43:45;;;;;;;;;;;;;;;;;;4985152;28;19940;-66
2023/03/11 14:46:15;;;;;;;;;;;;;;;;;;4977055;28;20439;-65
2023/03/11 14:48:41;;;;;;;;;;;;;;;;;;4985846;28;19972;-65
2023/03/11 14:51:06;;;;;;;;;;;;;;;;;;4983899;28;21516;-65
2023/03/11 14:53:32;;;;;;;;;;;;;;;;;;4984061;28;19924;-65
2023/03/11 14:55:57;;;;;;;;;;;;;;;;;;4986085;28;20024;-64
2023/03/11 14:58:24;;;;;;;;;;;;;;;;;;4984534;28;20255;-67
2023/03/11 15:00:50;;;;;;;;;;;;;;;;;;4986162;28;19929;-65
2023/03/11 15:03:15;;;;;;;;;;;;;;;;;;4969246;28;19956;-66
2023/03/11 15:05:41;;;;;;;;;;;;;;;;;;4980218;28;19969;-66
2023/03/11 15:08:06;;;;;;;;;;;;;;;;;;4976361;28;19983;-66
2023/03/11 15:10:35;;;;;;;;;;;;;;;;;;4969740;28;20101;-66
2023/03/11 15:13:00;;;;;;;;;;;;;;;;;;4980034;28;19922;-65
2023/03/11 15:15:26;;;;;;;;;;;;;;;;;;4965393;28;19926;-65
2023/03/11 15:17:51;;;;;;;;;;;;;;;;;;4980963;28;21368;-65
2023/03/11 15:20:22;;;;;;;;;;;;;;;;;;4978612;28;19923;-66
2023/03/11 15:22:47;;;;;;;;;;;;;;;;;;4984600;28;19921;-65
2023/03/11 15:25:13;;;;;;;;;;;;;;;;;;4968666;28;20778;-64
2023/03/11 15:27:40;;;;;;;;;;;;;;;;;;4987239;28;20132;-65
2023/03/11 15:30:06;;;;;;;;;;;;;;;;;;4978164;28;19921;-65
2023/03/11 15:32:34;;;;;;;;;;;;;;;;;;4983165;28;19972;-66
2023/03/11 15:35:03;;;;;;;;;;;;;;;;;;4982691;28;20005;-65
2023/03/11 15:37:28;;;;;;;;;;;;;;;;;;4969821;28;19917;-65
2023/03/11 15:39:57;;;;;;;;;;;;;;;;;;4984912;28;20405;-65
2023/03/11 15:42:23;;;;;;;;;;;;;;;;;;4987136;28;20010;-65
2023/03/11 15:44:48;;;;;;;;;;;;;;;;;;4985757;28;19941;-65
2023/03/11 15:47:14;;;;;;;;;;;;;;;;;;4969357;28;21488;-64
2023/03/11 15:49:39;;;;;;;;;;;;;;;;;;4981898;28;19921;-64
2023/03/11 15:52:07;;;;;;;;;;;;;;;;;;4981952;28;20020;-64
2023/03/11 15:54:33;;;;;;;;;;;;;;;;;;4981590;28;20309;-66
2023/03/11 15:57:01;;;;;;;;;;;;;;;;;;4982583;28;20305;-64
2023/03/11 15:59:29;;;;;;;;;;;;;;;;;;4969841;28;19922;-65
2023/03/11 16:01:54;;;;;;;;;;;;;;;;;;4973039;28;19928;-65
2023/03/11 16:04:19;;;;;;;;;;;;;;;;;;4981147;28;19918;-64
2023/03/11 16:06:57;;;;;;;;;;;;;;;;;;4982739;28;19983;-64
2023/03/11 16:09:24;;;;;;;;;;;;;;;;;;4985442;28;19931;-65
2023/03/11 16:11:50;;;;;;;;;;;;;;;;;;4984613;28;20150;-64
2023/03/11 16:14:15;;;;;;;;;;;;;;;;;;4986340;28;19921;-66
2023/03/11 16:16:43;;;;;;;;;;;;;;;;;;4979256;28;19921;-65
2023/03/11 16:19:08;;;;;;;;;;;;;;;;;;4985402;28;20033;-64
2023/03/11 16:21:34;;;;;;;;;;;;;;;;;;4983632;28;19928;-64
2023/03/11 16:24:02;;;;;;;;;;;;;;;;;;4982306;28;19939;-64
2023/03/11 16:26:28;;;;;;;;;;;;;;;;;;4981374;28;19926;-64
2023/03/11 16:28:54;;;;;;;;;;;;;;;;;;4985957;28;19917;-64
2023/03/11 16:31:32;;;;;;;;;;;;;;;;;;4982842;28;20011;-65
2023/03/11 16:33:57;;;;;;;;;;;;;;;;;;4980681;28;19922;-64
2023/03/11 16:36:22;;;;;;;;;;;;;;;;;;4985061;28;20301;-64
2023/03/11 16:38:48;;;;;;;;;;;;;;;;;;4996395;28;20485;-64
2023/03/11 16:41:16;;;;;;;;;;;;;;;;;;4968180;28;19921;-64
2023/03/11 16:43:45;;;;;;;;;;;;;;;;;;4979934;28;20309;-64
2023/03/11 16:46:10;;;;;;;;;;;;;;;;;;4967101;28;20186;-64
2023/03/11 16:48:35;;;;;;;;;;;;;;;;;;4984755;28;19921;-64
2023/03/11 16:51:00;;;;;;;;;;;;;;;;;;4975655;28;19917;-65
2023/03/11 16:53:29;;;;;;;;;;;;;;;;;;4980106;28;19950;-64
2023/03/11 16:55:54;;;;;;;;;;;;;;;;;;4966034;28;20644;-64
2023/03/11 16:58:22;;;;;;;;;;;;;;;;;;4981602;28;20404;-64